Terminal Aerodrome Forecast
Issued by NWS Anchorage, AK

Home | Current Version | Previous Version | Text Only | Print | Product List | Glossary On
Versions: 1 2 3 4 5 6 7 8 9 10 11 12 13 14 15 16 17 18 19 20 21 22 23 24 25 26 27 28
132
FTAK31 PANC 280530
TAFANC
TAF
PANC 280530Z 2806/2912 31004KT P6SM BKN080 BKN100 BKN160
     FM280900 VRB03KT P6SM SCT070 BKN120
     FM282000 VRB03KT 6SM -SN SCT020 BKN040
     FM290000 VRB03KT 5SM -SN BR SCT015 BKN030
     FM290400 VRB03KT 4SM -SN SCT010 BKN025=

USA.gov is the U.S. government's official web portal to all federal, state and local government web resources and services.